Air Navigation Services of Czech Republic  
Last data update:  25.01.2022 14:10:29 UTC česká verze
   METEO Page displayed:  25.01.2022 14:11:39 UTC  
vysvětlivky
METAR EDDB 251350Z 28010KT 7000 -DZ SCT008 BKN010 04/03 Q1030 TEMPO 4000 -DZ BKN007=
METAR EDDC 251350Z 28006KT 250V310 7000 -RADZ BKN005 BKN015 02/01 Q1030 TEMPO BKN012=
METAR EDDE 251350Z 28006KT 9999 OVC008 01/M00 Q1031 NOSIG=
METAR EDDF 251350Z 18004KT 5000 BR SCT004 OVC009 01/M00 Q1033 TEMPO 4000 BKN004=
METAR EDDM 251350Z 31004KT 260V350 7000 BKN005 M01/M02 Q1031 BECMG OVC004=
METAR EDDN 251350Z VRB02KT 1000 R28/P2000N BR FEW001 OVC002 M01/M01 Q1032 TEMPO 1500=
METAR EDDP 251350Z 30006KT 9999 BKN010 03/01 Q1031 TEMPO BKN008=
METAR EDQM 251350Z 26004KT 9000 BKN003 OVC005 M01/M01 Q1029=
METAR EPBY 251400Z 28012KT 9999 -RA BKN005 OVC007 04/03 Q1025=
METAR EPGD 251400Z 31014KT 9999 -SHRA FEW006 SCT011 BKN014 05/02 Q1023=
METAR EPKK 251400Z 24009KT 7000 BKN008 01/M00 Q1027=
METAR EPKT 251400Z 28008KT 9999 SCT008 BKN015 01/M00 Q1027=
METAR EPLL 251400Z 27011KT 3000 -RA BR BKN003 02/01 Q1025=
METAR EPPO 251400Z 28011KT 6000 OVC005 04/03 Q1027=
METAR EPRZ 251400Z 27011KT 9999 OVC011 01/M00 Q1025=
METAR EPWA 251400Z 28013KT 8000 -RA BKN005 02/02 Q1024 TEMPO 4000 DZ BR=
METAR EPWR 251400Z 30007KT 9999 BKN018 04/02 Q1029=
METAR LHBP 251400Z 22007KT 9999 BKN018 02/M03 Q1028 NOSIG=
METAR LHSM 251345Z AUTO VRB01KT 6000 BKN030 03/M01 Q1031 NOSIG=
METAR LKBC NIL
METAR LKCV 251400Z 27011KT 9999 FEW014 BKN022 OVC032 03/00 Q1029 NOSIG RMK WHT WHT=
METAR LKKB 251400Z 27006KT 9999 OVC018 03/M00 Q1030 NOSIG RMK WHT WHT=
METAR LKKU 251400Z 20006KT 3300 BR FEW009 OVC042 02/01 Q1029=
METAR LKKV 251400Z 24005KT 200V270 9999 BKN004 BKN010 M00/M02 Q1029 RMK REG QNH 1026=
METAR LKLN 251400Z AUTO 28004KT 230V310 9999 OVC012 02/M01 Q1031=
METAR LKMT 251400Z 24007KT 1600 -SN BR OVC015 01/01 Q1028 NOSIG RMK REG QNH 1026=
METAR LKNA 251400Z 28007KT 9000 -DZ FEW018 OVC023 01/M01 Q1028 NOSIG RMK WHT WHT=
METAR LKPD 251400Z 27011KT 9999 -DZ BKN008 OVC017 03/01 Q1029 NOSIG RMK GRN GRN=
METAR LKPJ 251400Z AUTO 07003KT 3200 BR BKN018/// OVC040/// 03/01 Q1029=
METAR LKPR 251400Z 31007KT 9999 FEW013 OVC016 02/M00 Q1029 NOSIG RMK REG QNH 1026=
METAR LKTB 251400Z 27006KT 9999 FEW016 OVC037 03/00 Q1029 NOSIG RMK REG QNH 1026=
METAR LKVO 251400Z 28007KT 9999 OVC018 03/00 Q1030=
METAR LOWI 251350Z 16003KT CAVOK 07/M02 Q1029 NOSIG=
METAR LOWL 251350Z 28012KT 8000 SCT009 BKN013 01/M01 Q1031 TEMPO BKN009=
METAR LOWS 251350Z VRB02KT 4000 BR FEW001 BKN003 M01/M01 Q1031 NOSIG=
METAR LOWW 251350Z 29010KT 9999 -DZ SCT010 BKN019 02/M00 Q1030 NOSIG=
METAR LZIB 251400Z 30009KT 9999 FEW010 BKN015 03/M00 Q1030 NOSIG=
METAR LZKZ 251400Z 15005KT 9999 SCT043 BKN048 M02/M07 Q1027 NOSIG=
METAR LZMC 251300Z 30008KT 9999 FEW007 OVC012 03/01 Q1030=
METAR LZPP 251400Z 22002KT 6000 OVC013 01/M01 Q1029=
METAR LZSL 251300Z 00000KT 9999 BKN042 M00/M07 Q1027=
METAR LZTT 251400Z 26012KT 9999 FEW033 00/M04 Q1024 NOSIG=
METAR LZZI 251400Z VRB01KT 7000 -SN BKN028 OVC032 M01/M03 Q1028=